Zim Chicago — A8SI9 — position and weather

sailwx.info

Track history (hours):
 
Tides and Currents Weather Stations Pressure Air Temp Water Temp Dewpoint Dewpoint Depression Visibility Wind Speed Wind Dir Waves Ship Positions

Zim Chicago

Last reported at 2016-Jul-20 07:29 UTC. Time now 2016-Jul-24 04:55 UTC.
Position S 31°24' E 040°11'.

Length 334 m; draft 11.4 m.

Type: Cargo ship. MMSI: 636014223.

Date/timePositionNaut miles runAvg speedWind from/ knotsBaromVisibWave heightAir tempDewpointWater temp
2016-Jul-20 07:29S 31°24' E 040°11'1920.3
2016-Jul-20 06:34S 31°32' E 039°51'4920.7
2016-Jul-20 04:12S 31°53' E 038°59'1320.7
2016-Jul-20 03:33S 31°59' E 038°45'2121.3
2016-Jul-20 02:34S 32°08' E 038°23'2120.8
2016-Jul-20 01:34S 32°17' E 038°00'2120.6
2016-Jul-20 00:34S 32°25' E 037°38'2120.9
2016-Jul-19 23:34S 32°33' E 037°15'2120.6
2016-Jul-19 22:33S 32°41' E 036°53'2020.1
2016-Jul-19 21:33S 32°50' E 036°31'2020.2
2016-Jul-19 20:33S 32°58' E 036°09'2020.2
2016-Jul-19 19:33S 33°06' E 035°47'6220.4
2016-Jul-19 16:32S 33°31' E 034°39'2020.5
2016-Jul-19 15:33S 33°38' E 034°17'2020.2
2016-Jul-19 14:33S 33°45' E 033°54'2019.8
2016-Jul-19 13:33S 33°52' E 033°32'2019.6
2016-Jul-19 12:33S 34°00' E 033°10'1919.3
2016-Jul-19 11:33S 34°08' E 032°49'2018.8
2016-Jul-19 10:30S 34°15' E 032°27'1818.7
2016-Jul-19 09:33S 34°22' E 032°07'1918.5
2016-Jul-19 08:33S 34°28' E 031°46'1918.5
2016-Jul-19 07:33S 34°34' E 031°24'6418.9
2016-Jul-19 04:09S 34°56' E 030°11'1118.8
2016-Jul-19 03:33S 34°59' E 029°58'2020.1
2016-Jul-19 02:33S 34°59' E 029°33'2019.9
2016-Jul-19 01:33S 34°60' E 029°09'1919.0
2016-Jul-19 00:34S 35°01' E 028°46'49018.1
2016-Jul-17 21:30S 35°10' E 018°47'2418.4
2016-Jul-17 20:12S 35°09' E 018°18'  
2016-Jul-11 01:19S 26°13' W 041°50'6019.5
2016-Jul-10 22:14S 26°03' W 042°56'3418.9
2016-Jul-10 20:26S 25°49' W 043°31'1719.0
2016-Jul-10 19:33S 25°41' W 043°47'1919.2
2016-Jul-10 18:33S 25°31' W 044°05'2020.3
2016-Jul-10 17:33S 25°21' W 044°25'2120.7
2016-Jul-10 16:33S 25°12' W 044°45'2120.6
2016-Jul-10 15:33S 25°02' W 045°05'2120.6
2016-Jul-10 14:33S 24°51' W 045°24'2020.4
2016-Jul-10 13:33S 24°41' W 045°44'2020.0
2016-Jul-10 12:33S 24°31' W 046°03'1919.3
2016-Jul-10 11:33S 24°19' W 046°19'1616.5
2016-Jul-10 10:33S 24°03' W 046°21'6 5.5
2016-Jul-10 09:33S 23°58' W 046°18'0 0.1
2016-Jul-10 08:33S 23°58' W 046°18'0 0.0
2016-Jul-10 07:30S 23°58' W 046°18'  
Track history (hours):
 
Tides and Currents Weather Stations Pressure Air Temp Water Temp Dewpoint Dewpoint Depression Visibility Wind Speed Wind Dir Waves Ship Positions

Zim Chicago

Last reported at 2016-Jul-20 07:29 UTC. Time now 2016-Jul-24 04:55 UTC.
Position S 31°24' E 040°11'.

Length 334 m; draft 11.4 m.

Type: Cargo ship. MMSI: 636014223.

Date/timePositionNaut miles runAvg speedWind from/ knotsBaromVisibWave heightAir tempDewpointWater temp
2016-Jul-20 07:29S 31°24' E 040°11'1920.3
2016-Jul-20 06:34S 31°32' E 039°51'4920.7
2016-Jul-20 04:12S 31°53' E 038°59'1320.7
2016-Jul-20 03:33S 31°59' E 038°45'2121.3
2016-Jul-20 02:34S 32°08' E 038°23'2120.8
2016-Jul-20 01:34S 32°17' E 038°00'2120.6
2016-Jul-20 00:34S 32°25' E 037°38'2120.9
2016-Jul-19 23:34S 32°33' E 037°15'2120.6
2016-Jul-19 22:33S 32°41' E 036°53'2020.1
2016-Jul-19 21:33S 32°50' E 036°31'2020.2
2016-Jul-19 20:33S 32°58' E 036°09'2020.2
2016-Jul-19 19:33S 33°06' E 035°47'6220.4
2016-Jul-19 16:32S 33°31' E 034°39'2020.5
2016-Jul-19 15:33S 33°38' E 034°17'2020.2
2016-Jul-19 14:33S 33°45' E 033°54'2019.8
2016-Jul-19 13:33S 33°52' E 033°32'2019.6
2016-Jul-19 12:33S 34°00' E 033°10'1919.3
2016-Jul-19 11:33S 34°08' E 032°49'2018.8
2016-Jul-19 10:30S 34°15' E 032°27'1818.7
2016-Jul-19 09:33S 34°22' E 032°07'1918.5
2016-Jul-19 08:33S 34°28' E 031°46'1918.5
2016-Jul-19 07:33S 34°34' E 031°24'6418.9
2016-Jul-19 04:09S 34°56' E 030°11'1118.8
2016-Jul-19 03:33S 34°59' E 029°58'2020.1
2016-Jul-19 02:33S 34°59' E 029°33'2019.9
2016-Jul-19 01:33S 34°60' E 029°09'1919.0
2016-Jul-19 00:34S 35°01' E 028°46'49018.1
2016-Jul-17 21:30S 35°10' E 018°47'2418.4
2016-Jul-17 20:12S 35°09' E 018°18'  
2016-Jul-11 01:19S 26°13' W 041°50'6019.5
2016-Jul-10 22:14S 26°03' W 042°56'3418.9
2016-Jul-10 20:26S 25°49' W 043°31'1719.0
2016-Jul-10 19:33S 25°41' W 043°47'1919.2
2016-Jul-10 18:33S 25°31' W 044°05'2020.3
2016-Jul-10 17:33S 25°21' W 044°25'2120.7
2016-Jul-10 16:33S 25°12' W 044°45'2120.6
2016-Jul-10 15:33S 25°02' W 045°05'2120.6
2016-Jul-10 14:33S 24°51' W 045°24'2020.4
2016-Jul-10 13:33S 24°41' W 045°44'2020.0
2016-Jul-10 12:33S 24°31' W 046°03'1919.3
2016-Jul-10 11:33S 24°19' W 046°19'1616.5
2016-Jul-10 10:33S 24°03' W 046°21'6 5.5
2016-Jul-10 09:33S 23°58' W 046°18'0 0.1
2016-Jul-10 08:33S 23°58' W 046°18'0 0.0
2016-Jul-10 07:30S 23°58' W 046°18'  

Dump ship's entire track history